Villa Canas, Argentina
Current Conditions -  °F | °C
As of 2:00 PM on Thursday 30 Oct 2014 (Local Time) from SAAR Reporting Station
Clear Clear  
Wind Chill: 77°   Ceiling: Unl
Heat Index: 78°   Visibility: 6mi
Dew Point: 50°   Wind: 12mph
Humidity: 39%   Direction: 70°ENE
Pressure: 29.83"   Gusts: NA
Location:  34°S, 61.6°W
Report Text: SAAR 301700Z 07010KT CAVOK 25/10 Q1010
Loading
Personal Weather Stations






























Interactive Weather Map
Tropical Storm Tracking
New forecast layout! Learn more

10-Day Weather Forecast

Advertisements
Track Severe Weather on mobile